Time;durP1;ratioP1;P1;durP2;ratioP2;P2;SDS_P1;SDS_P2;PMS_P1;PMS_P2;Temp;Humidity;BMP_temperature;BMP_pressure;BME280_temperature;BME280_humidity;BME280_pressure;Samples;Min_cycle;Max_cycle;Signal;HPM_P1;HPM_P2
2023/05/08 00:00:56;;;;;;;4.37;3.70;;;9.60;99.90;;;;;;5063519;28;20269;-75
2023/05/08 00:03:22;;;;;;;5.40;4.23;;;9.60;99.90;;;;;;5061677;28;20222;-75
2023/05/08 00:05:48;;;;;;;4.43;3.63;;;9.50;99.90;;;;;;5064513;28;20230;-74
2023/05/08 00:08:14;;;;;;;8.37;4.00;;;9.40;99.90;;;;;;5064778;28;20748;-74
2023/05/08 00:10:40;;;;;;;4.67;3.10;;;9.50;99.90;;;;;;5060187;28;20207;-74
2023/05/08 00:13:05;;;;;;;5.87;4.00;;;9.40;99.90;;;;;;5066590;28;20333;-75
2023/05/08 00:15:31;;;;;;;4.50;3.43;;;9.40;99.90;;;;;;5066647;28;20244;-73
2023/05/08 00:17:57;;;;;;;7.30;4.27;;;9.30;99.90;;;;;;5064602;28;20182;-75
2023/05/08 00:20:23;;;;;;;6.27;4.40;;;9.40;99.90;;;;;;5063538;28;20214;-75
2023/05/08 00:22:48;;;;;;;5.00;4.33;;;9.30;99.90;;;;;;5062231;28;20214;-75
2023/05/08 00:25:14;;;;;;;4.83;4.30;;;9.20;99.90;;;;;;5065817;28;20702;-75
2023/05/08 00:27:40;;;;;;;6.70;4.10;;;9.20;99.90;;;;;;5065107;28;20563;-74
2023/05/08 00:30:06;;;;;;;7.37;4.07;;;9.20;99.90;;;;;;5074920;28;20200;-73
2023/05/08 00:32:32;;;;;;;3.87;3.57;;;9.20;99.90;;;;;;5058821;28;20207;-72
2023/05/08 00:34:58;;;;;;;4.60;3.60;;;9.20;99.90;;;;;;5063408;28;20214;-72
2023/05/08 00:37:23;;;;;;;6.20;4.40;;;9.20;99.90;;;;;;5064071;28;20198;-71
2023/05/08 00:39:49;;;;;;;6.03;4.90;;;9.10;99.90;;;;;;5057158;28;20175;-73
2023/05/08 00:42:15;;;;;;;5.67;4.17;;;9.10;99.90;;;;;;5062479;28;20744;-74
2023/05/08 00:44:40;;;;;;;5.50;4.60;;;9.00;99.90;;;;;;5059752;28;20217;-71
2023/05/08 00:47:07;;;;;;;4.37;3.97;;;9.00;99.90;;;;;;5062000;28;20207;-74
2023/05/08 00:49:34;;;;;;;5.80;4.57;;;9.00;99.90;;;;;;5062513;28;20238;-74
2023/05/08 00:52:01;;;;;;;6.97;4.63;;;9.10;99.90;;;;;;5061398;28;20628;-75
2023/05/08 00:54:28;;;;;;;6.03;4.60;;;8.90;99.90;;;;;;5059667;28;20182;-76
2023/05/08 00:56:54;;;;;;;5.43;4.70;;;8.90;99.90;;;;;;5066734;28;20280;-74
2023/05/08 00:59:21;;;;;;;6.13;4.60;;;8.90;99.90;;;;;;5054917;28;20686;-73
2023/05/08 01:01:48;;;;;;;7.70;4.50;;;8.80;99.90;;;;;;5071359;28;20229;-74
2023/05/08 01:04:14;;;;;;;6.13;4.57;;;8.80;99.90;;;;;;5074676;28;20214;-74
2023/05/08 01:06:40;;;;;;;5.87;4.83;;;8.80;99.90;;;;;;5074148;28;20780;-70
2023/05/08 01:09:06;;;;;;;5.93;4.73;;;8.80;99.90;;;;;;5076279;28;20264;-72
2023/05/08 01:11:38;;;;;;;8.80;4.90;;;8.60;99.90;;;;;;5072205;28;20705;-73
2023/05/08 01:14:28;;;;;;;9.00;5.07;;;8.70;99.90;;;;;;5069126;28;20256;-73
2023/05/08 01:17:21;;;;;;;4.93;4.30;;;8.70;99.90;;;;;;5066734;28;20584;-74
2023/05/08 01:20:01;;;;;;;6.20;4.60;;;8.60;99.90;;;;;;5074376;28;20209;-72
2023/05/08 01:22:37;;;;;;;5.87;4.90;;;8.60;99.90;;;;;;5066189;28;20281;-71
2023/05/08 01:25:28;;;;;;;6.90;5.27;;;8.60;99.90;;;;;;5060796;28;20713;-73
2023/05/08 01:28:03;;;;;;;7.20;5.03;;;8.60;99.90;;;;;;5062938;28;20215;-73
2023/05/08 01:30:43;;;;;;;6.83;4.80;;;8.50;99.90;;;;;;5061913;28;20187;-72
2023/05/08 01:33:27;;;;;;;6.53;4.80;;;8.50;99.90;;;;;;5065726;28;20281;-73
2023/05/08 01:36:01;;;;;;;6.23;5.20;;;8.60;99.90;;;;;;5060575;28;20217;-73
2023/05/08 01:38:38;;;;;;;6.90;5.07;;;8.60;99.90;;;;;;5060091;28;20218;-73
2023/05/08 01:41:17;;;;;;;8.13;4.60;;;8.60;99.90;;;;;;5068952;28;20253;-73
2023/05/08 01:43:54;;;;;;;5.57;4.73;;;8.60;99.90;;;;;;5073295;28;20691;-72
2023/05/08 01:46:25;;;;;;;8.23;4.90;;;8.50;99.90;;;;;;5063952;28;20586;-73
2023/05/08 01:49:15;;;;;;;5.63;4.60;;;8.50;99.90;;;;;;5065058;28;20219;-71
2023/05/08 01:51:45;;;;;;;7.77;4.93;;;8.50;99.90;;;;;;5070667;28;20626;-75
2023/05/08 01:54:15;;;;;;;7.90;5.00;;;8.60;99.90;;;;;;5060765;28;20266;-75
2023/05/08 01:56:44;;;;;;;5.97;4.67;;;8.50;99.90;;;;;;5067552;28;20222;-70
2023/05/08 01:59:15;;;;;;;6.53;5.00;;;8.40;99.90;;;;;;5065675;28;20294;-74
2023/05/08 02:01:43;;;;;;;6.80;5.07;;;8.40;99.90;;;;;;5061515;28;20318;-73
2023/05/08 02:04:10;;;;;;;5.73;5.13;;;8.40;99.90;;;;;;5066052;28;20215;-75
2023/05/08 02:06:37;;;;;;;7.07;5.53;;;8.50;99.90;;;;;;5064181;28;20190;-74
2023/05/08 02:09:06;;;;;;;7.73;5.67;;;8.40;99.90;;;;;;5067208;28;20175;-74
2023/05/08 02:11:33;;;;;;;6.60;5.33;;;8.30;99.90;;;;;;5062858;28;20270;-74
2023/05/08 02:14:00;;;;;;;7.93;5.00;;;8.40;99.90;;;;;;5066948;28;20602;-75
2023/05/08 02:16:27;;;;;;;6.90;5.17;;;8.30;99.90;;;;;;5070947;28;20203;-74
2023/05/08 02:18:55;;;;;;;5.50;4.80;;;8.20;99.90;;;;;;5062953;28;20211;-75
2023/05/08 02:21:22;;;;;;;7.15;6.00;;;8.10;99.90;;;;;;5065323;28;20944;-74
2023/05/08 02:23:49;;;;;;;7.20;5.77;;;8.10;99.90;;;;;;5061432;28;20690;-74
2023/05/08 02:26:15;;;;;;;7.10;5.17;;;8.10;99.90;;;;;;5061422;28;20282;-75
2023/05/08 02:28:41;;;;;;;7.20;5.40;;;8.10;99.90;;;;;;5071029;28;20207;-72
2023/05/08 02:31:09;;;;;;;7.53;4.63;;;8.10;99.90;;;;;;5060869;28;20215;-75
2023/05/08 02:33:39;;;;;;;6.53;5.20;;;8.00;99.90;;;;;;5068854;28;20538;-74
2023/05/08 02:36:06;;;;;;;9.43;5.67;;;8.00;99.90;;;;;;5067916;28;20199;-74
2023/05/08 02:38:34;;;;;;;6.53;5.00;;;8.00;99.90;;;;;;5066922;28;20207;-75
2023/05/08 02:41:02;;;;;;;7.27;5.20;;;8.00;99.90;;;;;;5068509;28;20289;-74
2023/05/08 02:43:28;;;;;;;8.30;6.00;;;7.90;99.90;;;;;;5066647;28;20246;-75
2023/05/08 02:46:13;;;;;;;8.23;5.93;;;7.90;99.90;;;;;;5064591;28;20837;-75
2023/05/08 02:48:56;;;;;;;6.63;5.27;;;7.90;99.90;;;;;;5063842;28;20188;-74
2023/05/08 02:51:32;;;;;;;8.83;5.77;;;8.00;99.90;;;;;;5064909;28;20214;-75
2023/05/08 02:54:08;;;;;;;9.10;6.63;;;8.00;99.90;;;;;;5067950;28;20241;-75
2023/05/08 02:56:37;;;;;;;10.40;6.57;;;8.00;99.90;;;;;;5063574;28;20230;-75
2023/05/08 02:59:09;;;;;;;7.33;5.80;;;8.00;99.90;;;;;;5064510;28;20215;-75
2023/05/08 03:01:48;;;;;;;9.27;6.43;;;8.10;99.90;;;;;;5062203;28;20219;-75
2023/05/08 03:04:27;;;;;;;6.70;5.60;;;8.00;99.90;;;;;;5070008;28;20214;-71
2023/05/08 03:06:55;;;;;;;9.83;5.77;;;8.00;99.90;;;;;;5065859;28;20222;-73
2023/05/08 03:09:25;;;;;;;6.67;5.40;;;8.00;99.90;;;;;;5070269;28;20171;-74
2023/05/08 03:11:58;;;;;;;8.53;5.63;;;7.90;99.90;;;;;;5067013;28;20252;-74
2023/05/08 03:14:27;;;;;;;6.80;6.10;;;7.90;99.90;;;;;;5064805;28;20648;-74
2023/05/08 03:16:55;;;;;;;8.40;5.33;;;7.80;99.90;;;;;;5062642;28;20253;-74
2023/05/08 03:19:29;;;;;;;7.53;5.77;;;7.70;99.90;;;;;;5060567;28;20241;-75
2023/05/08 03:21:56;;;;;;;8.97;6.07;;;7.70;99.90;;;;;;5062554;28;20225;-75
2023/05/08 03:24:24;;;;;;;9.90;6.50;;;7.70;99.90;;;;;;5062629;28;20202;-75
2023/05/08 03:26:50;;;;;;;7.57;6.13;;;7.70;99.90;;;;;;5068036;28;20260;-74
2023/05/08 03:29:17;;;;;;;7.47;6.00;;;7.70;99.90;;;;;;5063279;28;20210;-75
2023/05/08 03:31:43;;;;;;;7.20;5.33;;;7.70;99.90;;;;;;5065067;28;20225;-74
2023/05/08 03:34:12;;;;;;;8.57;5.60;;;7.70;99.90;;;;;;5065227;28;20282;-75
2023/05/08 03:36:38;;;;;;;8.83;6.17;;;7.70;99.90;;;;;;5057719;28;20258;-75
2023/05/08 03:39:04;;;;;;;6.93;5.43;;;7.80;99.90;;;;;;5067350;28;20178;-75
2023/05/08 03:41:30;;;;;;;7.70;6.03;;;7.80;99.90;;;;;;5065529;28;20748;-74
2023/05/08 03:43:57;;;;;;;6.90;5.90;;;7.80;99.90;;;;;;5069709;28;20280;-75
2023/05/08 03:46:24;;;;;;;9.30;6.70;;;7.70;99.90;;;;;;5066403;28;20912;-74
2023/05/08 03:48:52;;;;;;;8.20;6.17;;;7.70;99.90;;;;;;5069482;28;20253;-73
2023/05/08 03:51:18;;;;;;;8.37;5.43;;;7.70;99.90;;;;;;5066051;28;20715;-74
2023/05/08 03:53:43;;;;;;;10.60;6.00;;;7.60;99.90;;;;;;5067582;28;20230;-73
2023/05/08 03:56:09;;;;;;;7.63;5.70;;;7.80;99.90;;;;;;5067545;28;20697;-74
2023/05/08 03:58:45;;;;;;;7.30;5.90;;;8.00;99.90;;;;;;5060643;28;20469;-73
2023/05/08 04:01:32;;;;;;;9.95;6.50;;;8.40;99.90;;;;;;5061890;28;20513;-74
2023/05/08 04:04:38;;;;;;;7.87;5.93;;;9.20;99.90;;;;;;5064494;28;20245;-74
2023/05/08 04:07:25;;;;;;;7.13;5.17;;;9.90;99.90;;;;;;5052977;28;20279;-73
2023/05/08 04:09:54;;;;;;;6.03;4.60;;;11.00;99.90;;;;;;5062771;28;20210;-74
2023/05/08 04:12:29;;;;;;;7.37;5.20;;;11.10;99.90;;;;;;5064968;28;20256;-74
2023/05/08 04:15:18;;;;;;;7.45;4.53;;;11.20;99.90;;;;;;5061692;28;20297;-74
2023/05/08 04:17:54;;;;;;;5.25;4.75;;;10.60;99.90;;;;;;5057887;28;20233;-74
2023/05/08 04:20:24;;;;;;;7.47;5.10;;;10.10;99.90;;;;;;5063608;28;20210;-74
2023/05/08 04:22:53;;;;;;;7.83;5.07;;;9.60;99.90;;;;;;5063548;28;20214;-73
2023/05/08 04:27:49;;;;;;;7.60;4.93;;;8.80;99.90;;;;;;5003573;28;21394;-70
2023/05/08 04:30:16;;;;;;;7.23;4.90;;;8.60;99.90;;;;;;4989275;28;20178;-70
2023/05/08 04:32:43;;;;;;;8.53;6.00;;;8.60;99.90;;;;;;5003471;28;20231;-70
2023/05/08 04:35:12;;;;;;;5.83;5.07;;;9.40;99.90;;;;;;5004868;28;20216;-70
2023/05/08 04:37:39;;;;;;;8.67;5.23;;;10.50;99.90;;;;;;4987418;28;20719;-70
2023/05/08 04:40:06;;;;;;;6.43;5.13;;;11.60;99.90;;;;;;4984886;28;20275;-70
2023/05/08 04:42:35;;;;;;;6.00;4.72;;;12.40;99.90;;;;;;4987271;28;20214;-71
2023/05/08 04:45:01;;;;;;;7.18;4.60;;;12.80;99.90;;;;;;4986747;28;20192;-71
2023/05/08 04:47:26;;;;;;;7.80;4.45;;;13.10;99.90;;;;;;4987766;28;20716;-71
2023/05/08 04:49:52;;;;;;;7.20;4.93;;;12.90;99.90;;;;;;4983941;28;20202;-71
2023/05/08 04:52:18;;;;;;;5.70;4.60;;;13.70;99.90;;;;;;4987216;28;20214;-70
2023/05/08 04:54:43;;;;;;;5.45;4.65;;;13.50;99.90;;;;;;4985498;28;20178;-71
2023/05/08 04:57:09;;;;;;;4.57;4.10;;;13.80;99.90;;;;;;4982719;28;20210;-71
2023/05/08 04:59:35;;;;;;;6.40;4.40;;;14.00;99.90;;;;;;4982646;28;20704;-70
2023/05/08 05:02:01;;;;;;;6.30;4.25;;;13.80;99.90;;;;;;4982120;28;20312;-71
2023/05/08 05:04:27;;;;;;;5.47;4.20;;;13.60;99.90;;;;;;4982328;28;20233;-72
2023/05/08 05:06:53;;;;;;;5.97;4.85;;;14.00;99.90;;;;;;4985805;28;20696;-72
2023/05/08 05:09:18;;;;;;;7.20;4.85;;;14.10;99.90;;;;;;4990120;28;20193;-72
2023/05/08 05:11:44;;;;;;;5.70;4.43;;;14.30;99.90;;;;;;4987868;28;20234;-71
2023/05/08 05:14:10;;;;;;;7.25;5.93;;;15.00;99.90;;;;;;4985079;28;20217;-71
2023/05/08 05:16:35;;;;;;;8.35;4.22;;;15.50;99.90;;;;;;4987279;28;20206;-72
2023/05/08 05:19:01;;;;;;;5.28;4.15;;;15.20;99.90;;;;;;4987429;28;20212;-71
2023/05/08 05:21:27;;;;;;;5.68;4.70;;;15.70;99.90;;;;;;4989270;28;20173;-70
2023/05/08 05:23:53;;;;;;;6.97;5.20;;;15.50;99.90;;;;;;4990677;28;20217;-71
2023/05/08 05:26:18;;;;;;;6.07;4.88;;;15.50;99.90;;;;;;4990623;28;20213;-72
2023/05/08 05:28:44;;;;;;;6.22;4.70;;;14.50;99.90;;;;;;5004576;28;20249;-73
2023/05/08 05:31:09;;;;;;;9.80;4.18;;;15.20;99.90;;;;;;4990730;28;20300;-69
2023/05/08 05:33:35;;;;;;;5.68;3.63;;;15.60;99.90;;;;;;4987782;28;20174;-70
2023/05/08 05:36:01;;;;;;;5.60;4.93;;;15.20;99.90;;;;;;5006450;28;20202;-70
2023/05/08 05:38:27;;;;;;;4.93;4.22;;;14.60;99.90;;;;;;4987309;28;20218;-70
2023/05/08 05:40:52;;;;;;;7.53;5.35;;;15.10;99.90;;;;;;4991120;28;20244;-70
2023/05/08 05:43:18;;;;;;;5.95;4.38;;;14.90;99.90;;;;;;4991221;28;20217;-70
2023/05/08 05:45:44;;;;;;;6.75;4.47;;;14.80;99.90;;;;;;5005263;28;20209;-70
2023/05/08 05:48:09;;;;;;;4.07;3.63;;;15.00;99.90;;;;;;4993808;28;20178;-71
2023/05/08 05:50:36;;;;;;;6.32;3.70;;;15.60;99.90;;;;;;4991666;28;20598;-70
2023/05/08 05:53:02;;;;;;;5.15;4.05;;;15.80;99.90;;;;;;4991974;28;20217;-70
2023/05/08 05:55:28;;;;;;;7.32;4.43;;;15.70;99.90;;;;;;4990102;28;20205;-69
2023/05/08 05:57:53;;;;;;;7.00;5.88;;;15.30;99.90;;;;;;4988492;28;20224;-70
2023/05/08 06:00:20;;;;;;;6.25;4.53;;;15.50;99.90;;;;;;4989915;28;20277;-71
2023/05/08 06:02:46;;;;;;;5.57;3.70;;;15.80;99.90;;;;;;5006540;28;20229;-69
2023/05/08 06:05:12;;;;;;;5.32;3.95;;;15.80;99.90;;;;;;4988218;28;20217;-70
2023/05/08 06:07:38;;;;;;;5.13;3.63;;;16.20;99.90;;;;;;4991383;28;20233;-71
2023/05/08 06:10:04;;;;;;;4.45;3.22;;;16.00;99.90;;;;;;5005609;28;20220;-71
2023/05/08 06:12:30;;;;;;;4.75;2.83;;;16.90;99.90;;;;;;4988245;28;20189;-70
2023/05/08 06:14:56;;;;;;;5.25;3.15;;;16.20;99.90;;;;;;4990704;28;20221;-70
2023/05/08 06:17:21;;;;;;;4.40;3.40;;;16.20;99.90;;;;;;4988728;28;20430;-72
2023/05/08 06:19:49;;;;;;;5.22;3.53;;;16.90;99.90;;;;;;4987642;28;20409;-68
2023/05/08 06:22:18;;;;;;;4.03;3.63;;;16.80;99.90;;;;;;4988539;28;20239;-70
2023/05/08 06:24:44;;;;;;;4.68;2.97;;;17.00;99.90;;;;;;5006982;28;20188;-69
2023/05/08 06:27:10;;;;;;;3.28;2.83;;;16.50;99.90;;;;;;4989822;28;20209;-68
2023/05/08 06:29:36;;;;;;;3.95;2.67;;;16.60;99.90;;;;;;4989933;28;20236;-70
2023/05/08 06:32:01;;;;;;;3.63;2.97;;;17.40;99.90;;;;;;4989149;28;20221;-71
2023/05/08 06:34:27;;;;;;;3.88;2.80;;;16.80;99.90;;;;;;4989972;28;20210;-71
2023/05/08 06:36:53;;;;;;;3.45;3.10;;;18.30;99.90;;;;;;4987330;28;20859;-71
2023/05/08 06:39:18;;;;;;;3.97;2.65;;;18.30;99.90;;;;;;4989994;28;20178;-72
2023/05/08 06:41:47;;;;;;;4.38;3.00;;;18.80;99.90;;;;;;4984842;28;20237;-70
2023/05/08 06:44:14;;;;;;;3.72;3.10;;;18.70;99.90;;;;;;4986782;28;20700;-71
2023/05/08 06:46:39;;;;;;;4.15;2.88;;;19.00;99.90;;;;;;4988139;28;20221;-70
2023/05/08 06:49:05;;;;;;;6.47;3.20;;;17.60;99.90;;;;;;4988272;28;20280;-70
2023/05/08 06:51:31;;;;;;;4.15;2.88;;;17.50;99.90;;;;;;4986092;28;20246;-69
2023/05/08 06:53:57;;;;;;;4.35;3.33;;;16.90;99.90;;;;;;4990970;28;20208;-70
2023/05/08 06:56:23;;;;;;;3.38;3.08;;;17.20;99.90;;;;;;4983841;28;20218;-72
2023/05/08 06:58:49;;;;;;;2.65;2.38;;;18.30;99.90;;;;;;4987497;28;20731;-69
2023/05/08 07:01:15;;;;;;;4.93;2.80;;;18.70;99.90;;;;;;4989545;28;20252;-70
2023/05/08 07:03:40;;;;;;;3.45;2.50;;;17.50;99.90;;;;;;4989599;28;20221;-69
2023/05/08 07:06:08;;;;;;;5.88;2.67;;;17.00;99.90;;;;;;4991382;28;20212;-71
2023/05/08 07:08:34;;;;;;;3.70;2.80;;;16.80;99.90;;;;;;4987634;28;20590;-70
2023/05/08 07:10:59;;;;;;;4.55;2.58;;;17.00;99.90;;;;;;4989626;28;20218;-70
2023/05/08 07:13:25;;;;;;;6.85;3.30;;;17.90;99.90;;;;;;4989857;28;20364;-70
2023/05/08 07:15:51;;;;;;;4.47;2.63;;;17.90;99.90;;;;;;4987249;28;20236;-71
2023/05/08 07:18:16;;;;;;;7.97;3.05;;;18.30;99.90;;;;;;4988258;28;20577;-71
2023/05/08 07:20:42;;;;;;;4.15;2.83;;;18.60;99.90;;;;;;4987517;28;20587;-68
2023/05/08 07:23:08;;;;;;;5.22;2.78;;;18.20;99.90;;;;;;4990152;28;20704;-70
2023/05/08 07:25:34;;;;;;;4.78;2.40;;;17.10;99.90;;;;;;4985217;28;20717;-70
2023/05/08 07:28:00;;;;;;;3.20;2.47;;;17.40;99.90;;;;;;4989819;28;20228;-71
2023/05/08 07:30:25;;;;;;;2.85;2.50;;;18.00;99.90;;;;;;5000118;28;20578;-71
2023/05/08 07:32:51;;;;;;;4.40;2.67;;;18.50;99.90;;;;;;4987652;28;20217;-70
2023/05/08 07:35:17;;;;;;;7.97;2.20;;;17.50;99.90;;;;;;4984584;28;20626;-69
2023/05/08 07:37:42;;;;;;;4.40;2.60;;;17.40;99.90;;;;;;4986710;28;20216;-69
2023/05/08 07:40:08;;;;;;;5.25;2.60;;;17.60;99.90;;;;;;4988847;28;20242;-70
2023/05/08 07:42:41;;;;;;;6.10;2.42;;;18.10;99.90;;;;;;4985197;28;20217;-71
2023/05/08 07:45:12;;;;;;;7.97;2.30;;;17.30;99.90;;;;;;4989976;28;20256;-70
2023/05/08 07:47:46;;;;;;;3.97;2.15;;;17.90;99.90;;;;;;4989774;28;20221;-70
2023/05/08 07:50:12;;;;;;;3.85;2.35;;;18.20;99.90;;;;;;4987637;28;20599;-70
2023/05/08 07:52:38;;;;;;;9.30;5.90;;;19.10;99.90;;;;;;4987129;28;20202;-71
2023/05/08 07:55:04;;;;;;;4.40;2.90;;;19.50;99.30;;;;;;4987860;28;20221;-70
2023/05/08 07:57:37;;;;;;;6.25;2.53;;;18.50;99.90;;;;;;4987146;28;20236;-73
2023/05/08 08:00:05;;;;;;;3.58;2.40;;;18.20;99.90;;;;;;4963030;28;20229;-71
2023/05/08 08:02:30;;;;;;;4.65;2.60;;;18.00;99.90;;;;;;4960448;28;20276;-73
2023/05/08 08:04:56;;;;;;;3.95;2.42;;;18.00;99.90;;;;;;4981705;28;20215;-71
2023/05/08 08:07:22;;;;;;;4.32;2.35;;;18.60;99.50;;;;;;4966589;28;20206;-70
2023/05/08 08:09:47;;;;;;;5.13;2.88;;;18.40;99.90;;;;;;4963735;28;20179;-69
2023/05/08 08:12:13;;;;;;;2.50;2.20;;;18.20;99.90;;;;;;4982081;28;20187;-70
2023/05/08 08:14:39;;;;;;;4.05;2.13;;;18.70;99.70;;;;;;4966777;28;20205;-71
2023/05/08 08:17:04;;;;;;;5.75;2.20;;;19.30;99.20;;;;;;4967130;28;20225;-70
2023/05/08 08:19:30;;;;;;;4.25;2.15;;;18.90;99.20;;;;;;4966038;28;20211;-69
2023/05/08 08:21:55;;;;;;;2.67;1.98;;;19.20;98.70;;;;;;4960278;28;20238;-70
2023/05/08 08:24:22;;;;;;;4.18;1.92;;;18.90;97.90;;;;;;4968305;28;20262;-71
2023/05/08 08:26:47;;;;;;;2.78;1.90;;;18.30;98.00;;;;;;4970319;28;20245;-72
2023/05/08 08:29:13;;;;;;;3.55;1.88;;;18.20;98.50;;;;;;4964015;28;20218;-72
2023/05/08 08:31:39;;;;;;;3.28;2.35;;;17.70;97.60;;;;;;4964756;28;20213;-69
2023/05/08 08:34:05;;;;;;;2.85;2.20;;;17.30;98.60;;;;;;4963915;28;20309;-70
2023/05/08 08:36:31;;;;;;;2.67;1.83;;;17.10;98.80;;;;;;4966873;28;20618;-69
2023/05/08 08:38:57;;;;;;;3.67;2.00;;;16.30;99.30;;;;;;4970184;28;20190;-71
2023/05/08 08:41:23;;;;;;;3.15;2.00;;;16.60;99.90;;;;;;4968750;28;20301;-70
2023/05/08 08:43:49;;;;;;;2.05;1.70;;;16.80;99.20;;;;;;4968252;28;20315;-70
2023/05/08 08:46:18;;;;;;;2.67;1.73;;;16.60;98.40;;;;;;4969072;28;20365;-69
2023/05/08 08:48:46;;;;;;;3.33;2.05;;;16.40;98.30;;;;;;4966560;28;20587;-71
2023/05/08 08:51:35;;;;;;;2.97;2.10;;;16.20;98.60;;;;;;4970738;28;20186;-69
2023/05/08 08:54:08;;;;;;;1.80;1.70;;;15.80;99.20;;;;;;4968195;28;20220;-69
2023/05/08 08:56:36;;;;;;;3.17;2.05;;;16.10;99.20;;;;;;4965129;28;20749;-71
2023/05/08 08:59:04;;;;;;;3.40;2.28;;;16.10;99.70;;;;;;4967541;28;20214;-70
2023/05/08 09:01:33;;;;;;;3.70;2.00;;;16.20;99.10;;;;;;4965787;28;20710;-69
2023/05/08 09:03:58;;;;;;;3.88;1.75;;;16.40;98.70;;;;;;4967047;28;20300;-70
2023/05/08 09:06:26;;;;;;;3.55;1.95;;;16.50;98.80;;;;;;4966723;28;20233;-70
2023/05/08 09:08:55;;;;;;;3.35;1.95;;;16.30;98.00;;;;;;4968176;28;20301;-70
2023/05/08 09:11:21;;;;;;;4.45;1.95;;;16.00;98.30;;;;;;4969704;28;20305;-70
2023/05/08 09:13:47;;;;;;;3.20;1.90;;;15.80;97.50;;;;;;4969500;28;20358;-71
2023/05/08 09:16:13;;;;;;;3.42;2.08;;;15.80;98.50;;;;;;4969358;28;20218;-70
2023/05/08 09:18:38;;;;;;;2.22;1.73;;;15.90;98.60;;;;;;4969060;28;20178;-69
2023/05/08 09:21:05;;;;;;;2.70;1.98;;;15.90;98.10;;;;;;4968722;28;20177;-70
2023/05/08 09:23:31;;;;;;;3.42;2.25;;;15.50;98.50;;;;;;4966634;28;20218;-67
2023/05/08 09:25:57;;;;;;;2.25;1.92;;;15.30;98.80;;;;;;4968226;28;20218;-70
2023/05/08 09:28:25;;;;;;;4.15;2.10;;;15.50;99.10;;;;;;4967907;28;20210;-71
2023/05/08 09:30:55;;;;;;;3.33;2.28;;;15.60;98.90;;;;;;4968206;28;20700;-71
2023/05/08 09:33:26;;;;;;;5.68;1.95;;;15.70;98.70;;;;;;4967551;28;20249;-70
2023/05/08 09:35:53;;;;;;;5.18;2.03;;;15.80;99.50;;;;;;4968731;28;20218;-71
2023/05/08 09:38:38;;;;;;;8.07;2.55;;;15.80;99.20;;;;;;4966570;28;20654;-70
2023/05/08 09:41:13;;;;;;;2.88;2.10;;;15.90;99.50;;;;;;4965263;28;20211;-69
2023/05/08 09:43:39;;;;;;;2.90;2.28;;;15.60;99.20;;;;;;4961374;28;20245;-69
2023/05/08 09:46:25;;;;;;;3.55;2.17;;;15.60;99.30;;;;;;4968059;28;20215;-69
2023/05/08 09:48:56;;;;;;;3.53;2.30;;;15.80;99.70;;;;;;4966339;28;21454;-71
2023/05/08 09:51:24;;;;;;;4.15;2.40;;;15.60;99.90;;;;;;4969690;28;20214;-70
2023/05/08 09:53:51;;;;;;;6.03;2.95;;;15.60;99.90;;;;;;4968861;28;20217;-70
2023/05/08 09:56:38;;;;;;;4.50;2.55;;;15.80;99.90;;;;;;4984390;28;20302;-70
2023/05/08 09:59:27;;;;;;;3.20;2.60;;;15.80;99.90;;;;;;4968463;28;20211;-71
2023/05/08 10:01:54;;;;;;;3.95;2.33;;;15.70;99.90;;;;;;4962806;28;20289;-69
2023/05/08 10:04:34;;;;;;;3.85;2.25;;;15.80;99.90;;;;;;4968938;28;20390;-70
2023/05/08 10:07:00;;;;;;;3.72;2.38;;;16.00;99.90;;;;;;4979197;28;20225;-71
2023/05/08 10:09:26;;;;;;;3.63;2.22;;;16.20;99.90;;;;;;4971665;28;20179;-71
2023/05/08 10:11:54;;;;;;;3.53;2.42;;;16.20;99.90;;;;;;4966978;28;20341;-71
2023/05/08 10:14:23;;;;;;;4.00;2.88;;;16.10;99.90;;;;;;4970075;28;20216;-71
2023/05/08 10:16:51;;;;;;;4.68;2.85;;;16.20;99.90;;;;;;4969629;28;20210;-73
2023/05/08 10:19:27;;;;;;;3.15;2.10;;;16.70;99.90;;;;;;4982151;28;20217;-73
2023/05/08 10:21:54;;;;;;;3.05;1.75;;;16.30;99.20;;;;;;4969277;28;20262;-72
2023/05/08 10:24:30;;;;;;;4.50;1.95;;;16.30;99.50;;;;;;4967311;28;20324;-76
2023/05/08 10:27:03;;;;;;;3.25;2.30;;;16.30;99.80;;;;;;4997788;23;20232;-72
2023/05/08 10:29:53;;;;;;;3.45;2.20;;;16.30;99.30;;;;;;5006873;28;20264;-72
2023/05/08 10:32:20;;;;;;;3.45;2.10;;;16.60;99.20;;;;;;5039088;28;20235;-71
2023/05/08 10:34:51;;;;;;;4.68;2.22;;;16.90;99.30;;;;;;5050972;28;20220;-71
2023/05/08 10:37:17;;;;;;;4.32;2.13;;;16.80;98.80;;;;;;5051411;28;20211;-72
2023/05/08 10:39:44;;;;;;;3.28;1.85;;;17.00;99.00;;;;;;5050143;28;20653;-73
2023/05/08 10:42:12;;;;;;;3.53;2.00;;;16.80;97.90;;;;;;5050369;28;20171;-75
2023/05/08 10:44:38;;;;;;;2.75;1.83;;;16.70;97.00;;;;;;5049801;28;20238;-74
2023/05/08 10:47:29;;;;;;;2.40;1.83;;;16.30;97.40;;;;;;5049665;28;20212;-75
2023/05/08 10:50:19;;;;;;;7.28;2.22;;;16.10;98.30;;;;;;5047143;28;20222;-72
2023/05/08 10:53:11;;;;;;;4.90;2.50;;;16.30;98.30;;;;;;5043532;28;20301;-72
2023/05/08 10:55:38;;;;;;;2.95;2.08;;;16.30;98.90;;;;;;5047949;28;20748;-73
2023/05/08 10:58:05;;;;;;;2.60;1.75;;;16.40;98.80;;;;;;5044843;28;20211;-74
2023/05/08 11:00:56;;;;;;;2.90;1.92;;;16.50;98.70;;;;;;5045992;28;20200;-73
2023/05/08 11:03:30;;;;;;;5.93;2.30;;;16.70;98.00;;;;;;5045684;28;20673;-71
2023/05/08 11:05:57;;;;;;;14.00;1.98;;;16.60;98.20;;;;;;5062946;28;20227;-70
2023/05/08 11:08:27;;;;;;;3.80;2.03;;;16.60;98.00;;;;;;5048236;28;20302;-70
2023/05/08 11:10:59;;;;;;;2.22;1.83;;;16.70;98.10;;;;;;5050054;28;20770;-71
2023/05/08 11:13:39;;;;;;;6.00;2.90;;;16.70;97.70;;;;;;5050817;28;20228;-70
2023/05/08 11:16:05;;;;;;;2.72;2.20;;;16.50;97.80;;;;;;5049384;28;20710;-72
2023/05/08 11:18:31;;;;;;;4.70;2.60;;;16.60;97.80;;;;;;5050421;28;20203;-72
2023/05/08 11:20:59;;;;;;;5.68;2.08;;;16.80;98.60;;;;;;5048675;28;20287;-71
2023/05/08 11:23:35;;;;;;;6.78;2.33;;;16.80;98.30;;;;;;5050089;28;20223;-71
2023/05/08 11:26:36;;;;;;;4.00;2.03;;;16.80;97.30;;;;;;5044421;28;20294;-71
2023/05/08 11:29:14;;;;;;;3.17;1.95;;;16.80;97.70;;;;;;5032256;28;20298;-72
2023/05/08 11:31:50;;;;;;;3.03;2.00;;;17.00;97.60;;;;;;5044192;28;20223;-75
2023/05/08 11:34:40;;;;;;;4.28;2.05;;;16.80;97.40;;;;;;5045225;28;20207;-73
2023/05/08 11:37:15;;;;;;;3.97;2.00;;;16.90;97.50;;;;;;5042552;28;20254;-75
2023/05/08 11:39:41;;;;;;;2.28;1.80;;;17.20;97.30;;;;;;5040334;28;20315;-74
2023/05/08 11:42:27;;;;;;;3.20;1.83;;;17.10;97.40;;;;;;5043785;28;20268;-76
2023/05/08 11:45:12;;;;;;;2.80;1.95;;;16.90;97.40;;;;;;5057796;28;20250;-73
2023/05/08 11:47:41;;;;;;;2.65;1.58;;;16.80;97.50;;;;;;5038225;28;20620;-71
2023/05/08 11:50:11;;;;;;;5.43;2.00;;;16.70;96.40;;;;;;5047020;28;20219;-72
2023/05/08 11:52:38;;;;;;;3.65;1.60;;;16.80;96.20;;;;;;5046804;28;20471;-71
2023/05/08 11:55:05;;;;;;;3.75;1.55;;;16.90;96.00;;;;;;5046951;28;20257;-71
2023/05/08 11:57:32;;;;;;;1.95;1.58;;;17.10;95.60;;;;;;5045826;28;20238;-73
2023/05/08 12:00:03;;;;;;;3.35;1.70;;;17.10;94.90;;;;;;5045716;28;20190;-75
2023/05/08 12:02:39;;;;;;;2.20;1.67;;;17.20;95.20;;;;;;5045263;28;20690;-72
2023/05/08 12:05:06;;;;;;;6.75;4.60;;;17.20;96.00;;;;;;5044261;28;20226;-77
2023/05/08 12:07:32;;;;;;;3.08;1.75;;;17.10;96.00;;;;;;5044949;28;20250;-79
2023/05/08 12:10:01;;;;;;;2.97;2.25;;;17.00;95.60;;;;;;5061805;28;20918;-78
2023/05/08 12:12:38;;;;;;;4.32;2.20;;;17.00;95.90;;;;;;5047455;28;20237;-77
2023/05/08 12:15:08;;;;;;;3.75;1.95;;;17.10;95.70;;;;;;5046637;28;20206;-75
2023/05/08 12:17:34;;;;;;;5.05;2.08;;;17.20;95.90;;;;;;5045311;28;20257;-77
2023/05/08 12:20:14;;;;;;;2.85;1.95;;;17.30;94.80;;;;;;5058514;28;20210;-75
2023/05/08 12:22:41;;;;;;;1.75;1.60;;;17.20;94.20;;;;;;5042170;28;20254;-78
2023/05/08 12:25:08;;;;;;;1.67;1.58;;;17.00;94.40;;;;;;5043693;28;20628;-78
2023/05/08 12:27:36;;;;;;;3.72;1.60;;;17.10;94.60;;;;;;5043146;28;20264;-76
2023/05/08 12:30:07;;;;;;;2.05;1.75;;;17.10;94.70;;;;;;5045653;28;20556;-74
2023/05/08 12:32:35;;;;;;;3.67;1.85;;;17.00;95.10;;;;;;5042777;28;20216;-76
2023/05/08 12:35:01;;;;;;;4.13;1.80;;;17.20;95.20;;;;;;5046458;28;20773;-77
2023/05/08 12:37:27;;;;;;;3.55;2.05;;;17.40;95.00;;;;;;5046139;28;20721;-76
2023/05/08 12:39:53;;;;;;;2.58;1.73;;;17.20;95.00;;;;;;5047533;28;20215;-78
2023/05/08 12:42:18;;;;;;;2.80;1.52;;;17.30;94.80;;;;;;5050161;28;20257;-77
2023/05/08 12:44:51;;;;;;;3.33;1.50;;;17.30;94.60;;;;;;5047082;28;20196;-74
2023/05/08 12:47:19;;;;;;;2.45;1.52;;;17.20;94.70;;;;;;5045328;28;20260;-72
2023/05/08 12:49:47;;;;;;;3.42;1.77;;;17.10;94.60;;;;;;5043183;28;20209;-75
2023/05/08 12:52:14;;;;;;;4.40;1.90;;;16.90;94.60;;;;;;5043929;28;20199;-76
2023/05/08 12:54:45;;;;;;;2.95;2.10;;;17.00;95.00;;;;;;5043965;28;20180;-76
2023/05/08 12:57:16;;;;;;;2.17;1.60;;;17.10;95.30;;;;;;5045128;28;20245;-75
2023/05/08 12:59:42;;;;;;;2.80;2.22;;;17.00;95.60;;;;;;5038840;28;20687;-77
2023/05/08 13:02:22;;;;;;;2.90;1.60;;;17.10;95.60;;;;;;5044913;28;20538;-75
2023/05/08 13:04:53;;;;;;;2.45;1.58;;;17.30;96.10;;;;;;5040982;28;20241;-73